sensor_id;sensor_type;location;lat;lon;timestamp;temperature;humidity
31695;DHT22;18289;51.330;4.946;2022-08-06T00:00:46;14.10;99.90
31695;DHT22;18289;51.330;4.946;2022-08-06T00:03:12;14.20;99.90
31695;DHT22;18289;51.330;4.946;2022-08-06T00:05:38;14.10;99.90
31695;DHT22;18289;51.330;4.946;2022-08-06T00:08:04;14.10;99.90
31695;DHT22;18289;51.330;4.946;2022-08-06T00:10:29;14.00;99.90
31695;DHT22;18289;51.330;4.946;2022-08-06T00:12:59;14.00;99.90
31695;DHT22;18289;51.330;4.946;2022-08-06T00:15:25;14.00;99.90
31695;DHT22;18289;51.330;4.946;2022-08-06T00:17:51;14.10;99.90
31695;DHT22;18289;51.330;4.946;2022-08-06T00:20:17;14.20;99.90
31695;DHT22;18289;51.330;4.946;2022-08-06T00:22:43;14.10;99.90
31695;DHT22;18289;51.330;4.946;2022-08-06T00:25:09;14.00;99.90
31695;DHT22;18289;51.330;4.946;2022-08-06T00:27:38;13.90;99.90
31695;DHT22;18289;51.330;4.946;2022-08-06T00:30:08;13.80;99.90
31695;DHT22;18289;51.330;4.946;2022-08-06T00:32:34;13.80;99.90
31695;DHT22;18289;51.330;4.946;2022-08-06T00:35:00;13.80;99.90
31695;DHT22;18289;51.330;4.946;2022-08-06T00:37:26;13.80;99.90
31695;DHT22;18289;51.330;4.946;2022-08-06T00:39:54;14.00;99.90
31695;DHT22;18289;51.330;4.946;2022-08-06T00:42:21;14.10;99.90
31695;DHT22;18289;51.330;4.946;2022-08-06T00:44:47;13.80;99.90
31695;DHT22;18289;51.330;4.946;2022-08-06T00:47:13;13.60;99.90
31695;DHT22;18289;51.330;4.946;2022-08-06T00:49:38;13.50;99.90
31695;DHT22;18289;51.330;4.946;2022-08-06T00:52:04;13.60;99.90
31695;DHT22;18289;51.330;4.946;2022-08-06T00:54:30;13.80;99.90
31695;DHT22;18289;51.330;4.946;2022-08-06T00:56:56;13.60;99.90
31695;DHT22;18289;51.330;4.946;2022-08-06T00:59:22;13.60;99.90
31695;DHT22;18289;51.330;4.946;2022-08-06T01:01:47;13.70;99.90
31695;DHT22;18289;51.330;4.946;2022-08-06T01:04:13;13.70;99.90
31695;DHT22;18289;51.330;4.946;2022-08-06T01:06:39;13.50;99.90
31695;DHT22;18289;51.330;4.946;2022-08-06T01:09:05;13.60;99.90
31695;DHT22;18289;51.330;4.946;2022-08-06T01:11:31;13.60;99.90
31695;DHT22;18289;51.330;4.946;2022-08-06T01:13:57;13.70;99.90
31695;DHT22;18289;51.330;4.946;2022-08-06T01:16:29;13.70;99.90
31695;DHT22;18289;51.330;4.946;2022-08-06T01:27:56;13.40;99.90
31695;DHT22;18289;51.330;4.946;2022-08-06T01:30:27;13.40;99.90
31695;DHT22;18289;51.330;4.946;2022-08-06T01:33:01;13.30;99.90
31695;DHT22;18289;51.330;4.946;2022-08-06T01:35:32;13.20;99.90
31695;DHT22;18289;51.330;4.946;2022-08-06T01:38:11;13.40;99.90
31695;DHT22;18289;51.330;4.946;2022-08-06T01:40:40;13.40;99.90
31695;DHT22;18289;51.330;4.946;2022-08-06T01:43:11;13.30;99.90
31695;DHT22;18289;51.330;4.946;2022-08-06T01:45:39;13.40;99.90
31695;DHT22;18289;51.330;4.946;2022-08-06T01:48:12;13.30;99.90
31695;DHT22;18289;51.330;4.946;2022-08-06T01:50:43;13.40;99.90
31695;DHT22;18289;51.330;4.946;2022-08-06T01:53:17;13.30;99.90
31695;DHT22;18289;51.330;4.946;2022-08-06T01:55:47;13.30;99.90
31695;DHT22;18289;51.330;4.946;2022-08-06T01:58:19;13.30;99.90
31695;DHT22;18289;51.330;4.946;2022-08-06T02:00:48;13.20;99.90
31695;DHT22;18289;51.330;4.946;2022-08-06T02:03:30;13.10;99.90
31695;DHT22;18289;51.330;4.946;2022-08-06T02:05:58;13.10;99.90
31695;DHT22;18289;51.330;4.946;2022-08-06T02:08:29;13.10;99.90
31695;DHT22;18289;51.330;4.946;2022-08-06T02:10:57;13.30;99.90
31695;DHT22;18289;51.330;4.946;2022-08-06T02:13:23;13.30;99.90
31695;DHT22;18289;51.330;4.946;2022-08-06T02:15:52;13.50;99.90
31695;DHT22;18289;51.330;4.946;2022-08-06T02:18:18;13.50;99.90
31695;DHT22;18289;51.330;4.946;2022-08-06T02:20:47;13.40;99.90
31695;DHT22;18289;51.330;4.946;2022-08-06T02:23:19;13.20;99.90
31695;DHT22;18289;51.330;4.946;2022-08-06T02:25:47;13.30;99.90
31695;DHT22;18289;51.330;4.946;2022-08-06T02:28:15;13.00;99.90
31695;DHT22;18289;51.330;4.946;2022-08-06T02:30:45;13.10;99.90
31695;DHT22;18289;51.330;4.946;2022-08-06T02:33:12;13.10;99.90
31695;DHT22;18289;51.330;4.946;2022-08-06T02:35:49;13.10;99.90
31695;DHT22;18289;51.330;4.946;2022-08-06T02:44:02;13.40;99.90
31695;DHT22;18289;51.330;4.946;2022-08-06T02:47:04;13.50;99.90
31695;DHT22;18289;51.330;4.946;2022-08-06T02:49:36;13.40;99.90
31695;DHT22;18289;51.330;4.946;2022-08-06T02:52:13;13.40;99.90
31695;DHT22;18289;51.330;4.946;2022-08-06T02:54:48;13.40;99.90
31695;DHT22;18289;51.330;4.946;2022-08-06T02:57:21;13.50;99.90
31695;DHT22;18289;51.330;4.946;2022-08-06T02:59:52;13.40;99.90
31695;DHT22;18289;51.330;4.946;2022-08-06T03:02:23;13.30;99.90
31695;DHT22;18289;51.330;4.946;2022-08-06T03:04:50;13.40;99.90
31695;DHT22;18289;51.330;4.946;2022-08-06T03:07:18;13.40;99.90
31695;DHT22;18289;51.330;4.946;2022-08-06T03:09:47;13.40;99.90
31695;DHT22;18289;51.330;4.946;2022-08-06T03:12:15;13.30;99.90
31695;DHT22;18289;51.330;4.946;2022-08-06T03:14:43;13.30;99.90
31695;DHT22;18289;51.330;4.946;2022-08-06T03:17:12;13.30;99.90
31695;DHT22;18289;51.330;4.946;2022-08-06T03:19:41;13.10;99.90
31695;DHT22;18289;51.330;4.946;2022-08-06T03:22:08;13.00;99.90
31695;DHT22;18289;51.330;4.946;2022-08-06T03:24:35;12.90;99.90
31695;DHT22;18289;51.330;4.946;2022-08-06T03:27:03;12.70;99.90
31695;DHT22;18289;51.330;4.946;2022-08-06T03:29:30;12.60;99.90
31695;DHT22;18289;51.330;4.946;2022-08-06T03:31:57;12.70;99.90
31695;DHT22;18289;51.330;4.946;2022-08-06T03:34:24;12.80;99.90
31695;DHT22;18289;51.330;4.946;2022-08-06T03:36:51;12.80;99.90
31695;DHT22;18289;51.330;4.946;2022-08-06T03:39:18;12.80;99.90
31695;DHT22;18289;51.330;4.946;2022-08-06T03:41:45;12.80;99.90
31695;DHT22;18289;51.330;4.946;2022-08-06T03:44:12;12.70;99.90
31695;DHT22;18289;51.330;4.946;2022-08-06T03:46:44;12.70;99.90
31695;DHT22;18289;51.330;4.946;2022-08-06T03:49:19;12.70;99.90
31695;DHT22;18289;51.330;4.946;2022-08-06T03:51:50;12.60;99.90
31695;DHT22;18289;51.330;4.946;2022-08-06T03:54:17;12.50;99.90
31695;DHT22;18289;51.330;4.946;2022-08-06T03:56:45;12.60;99.90
31695;DHT22;18289;51.330;4.946;2022-08-06T03:59:12;12.60;99.90
31695;DHT22;18289;51.330;4.946;2022-08-06T04:01:41;12.50;99.90
31695;DHT22;18289;51.330;4.946;2022-08-06T04:04:08;12.60;99.90
31695;DHT22;18289;51.330;4.946;2022-08-06T04:06:35;12.80;99.90
31695;DHT22;18289;51.330;4.946;2022-08-06T04:09:02;12.60;99.90
31695;DHT22;18289;51.330;4.946;2022-08-06T04:11:30;12.70;99.90
31695;DHT22;18289;51.330;4.946;2022-08-06T04:13:58;12.70;99.90
31695;DHT22;18289;51.330;4.946;2022-08-06T04:16:25;12.80;99.90
31695;DHT22;18289;51.330;4.946;2022-08-06T04:18:51;12.60;99.90
31695;DHT22;18289;51.330;4.946;2022-08-06T04:21:22;12.80;99.90
31695;DHT22;18289;51.330;4.946;2022-08-06T04:23:49;12.70;99.90
31695;DHT22;18289;51.330;4.946;2022-08-06T04:26:17;12.60;99.90
31695;DHT22;18289;51.330;4.946;2022-08-06T04:28:47;12.40;99.90
31695;DHT22;18289;51.330;4.946;2022-08-06T04:31:14;12.50;99.90
31695;DHT22;18289;51.330;4.946;2022-08-06T04:33:41;12.50;99.90
31695;DHT22;18289;51.330;4.946;2022-08-06T04:36:08;12.40;99.90
31695;DHT22;18289;51.330;4.946;2022-08-06T04:38:34;12.40;99.90
31695;DHT22;18289;51.330;4.946;2022-08-06T04:41:00;12.40;99.90
31695;DHT22;18289;51.330;4.946;2022-08-06T04:43:27;12.60;99.90
31695;DHT22;18289;51.330;4.946;2022-08-06T04:45:54;12.70;99.90
31695;DHT22;18289;51.330;4.946;2022-08-06T04:48:20;12.80;99.90
31695;DHT22;18289;51.330;4.946;2022-08-06T04:50:46;12.90;99.90
31695;DHT22;18289;51.330;4.946;2022-08-06T04:53:17;13.00;99.90
31695;DHT22;18289;51.330;4.946;2022-08-06T04:55:44;13.10;99.90
31695;DHT22;18289;51.330;4.946;2022-08-06T04:58:12;13.00;99.90
31695;DHT22;18289;51.330;4.946;2022-08-06T05:00:43;12.80;99.90
31695;DHT22;18289;51.330;4.946;2022-08-06T05:03:10;12.70;99.90
31695;DHT22;18289;51.330;4.946;2022-08-06T05:05:44;12.70;99.90
31695;DHT22;18289;51.330;4.946;2022-08-06T05:08:12;12.90;99.90
31695;DHT22;18289;51.330;4.946;2022-08-06T05:10:56;13.10;99.90
31695;DHT22;18289;51.330;4.946;2022-08-06T05:13:23;13.10;99.90
31695;DHT22;18289;51.330;4.946;2022-08-06T05:15:53;13.30;99.90
31695;DHT22;18289;51.330;4.946;2022-08-06T05:18:25;13.40;99.90
31695;DHT22;18289;51.330;4.946;2022-08-06T05:20:54;13.50;99.90
31695;DHT22;18289;51.330;4.946;2022-08-06T05:23:37;13.70;99.90
31695;DHT22;18289;51.330;4.946;2022-08-06T05:26:04;13.80;99.90
31695;DHT22;18289;51.330;4.946;2022-08-06T05:28:32;13.90;99.90
31695;DHT22;18289;51.330;4.946;2022-08-06T05:30:57;14.00;99.90
31695;DHT22;18289;51.330;4.946;2022-08-06T05:33:28;13.90;99.90
31695;DHT22;18289;51.330;4.946;2022-08-06T05:35:54;13.90;99.90
31695;DHT22;18289;51.330;4.946;2022-08-06T05:38:20;13.90;99.90
31695;DHT22;18289;51.330;4.946;2022-08-06T05:40:46;13.90;99.90
31695;DHT22;18289;51.330;4.946;2022-08-06T05:43:12;14.10;99.90
31695;DHT22;18289;51.330;4.946;2022-08-06T05:45:41;14.00;99.90
31695;DHT22;18289;51.330;4.946;2022-08-06T05:48:08;14.10;99.90
31695;DHT22;18289;51.330;4.946;2022-08-06T05:50:39;14.30;99.90
31695;DHT22;18289;51.330;4.946;2022-08-06T05:53:33;14.30;99.90
31695;DHT22;18289;51.330;4.946;2022-08-06T05:56:06;14.40;99.90
31695;DHT22;18289;51.330;4.946;2022-08-06T05:58:47;14.50;99.90
31695;DHT22;18289;51.330;4.946;2022-08-06T06:01:17;14.70;99.90
31695;DHT22;18289;51.330;4.946;2022-08-06T06:03:43;14.70;99.90
31695;DHT22;18289;51.330;4.946;2022-08-06T06:06:11;14.80;99.90
31695;DHT22;18289;51.330;4.946;2022-08-06T06:08:37;14.90;99.90
31695;DHT22;18289;51.330;4.946;2022-08-06T06:11:05;15.10;99.90
31695;DHT22;18289;51.330;4.946;2022-08-06T06:13:33;15.10;99.90
31695;DHT22;18289;51.330;4.946;2022-08-06T06:21:15;15.50;99.90
31695;DHT22;18289;51.330;4.946;2022-08-06T06:24:08;15.60;99.90
31695;DHT22;18289;51.330;4.946;2022-08-06T06:26:46;15.70;99.90
31695;DHT22;18289;51.330;4.946;2022-08-06T06:29:37;15.80;99.90
31695;DHT22;18289;51.330;4.946;2022-08-06T06:32:13;15.80;99.90
31695;DHT22;18289;51.330;4.946;2022-08-06T06:37:19;15.80;99.90
31695;DHT22;18289;51.330;4.946;2022-08-06T06:39:58;16.00;99.90
31695;DHT22;18289;51.330;4.946;2022-08-06T06:42:31;16.10;99.90
31695;DHT22;18289;51.330;4.946;2022-08-06T06:45:27;16.20;99.90
31695;DHT22;18289;51.330;4.946;2022-08-06T06:47:59;16.20;99.90
31695;DHT22;18289;51.330;4.946;2022-08-06T06:50:32;16.20;99.90
31695;DHT22;18289;51.330;4.946;2022-08-06T06:52:58;16.20;99.90
31695;DHT22;18289;51.330;4.946;2022-08-06T06:55:33;16.30;99.90
31695;DHT22;18289;51.330;4.946;2022-08-06T06:58:10;16.40;99.90
31695;DHT22;18289;51.330;4.946;2022-08-06T07:00:37;16.50;99.90
31695;DHT22;18289;51.330;4.946;2022-08-06T07:03:06;16.60;99.90
31695;DHT22;18289;51.330;4.946;2022-08-06T07:05:33;16.80;99.90
31695;DHT22;18289;51.330;4.946;2022-08-06T07:08:02;16.90;99.90
31695;DHT22;18289;51.330;4.946;2022-08-06T07:10:30;16.90;99.90
31695;DHT22;18289;51.330;4.946;2022-08-06T07:12:58;17.10;99.90
31695;DHT22;18289;51.330;4.946;2022-08-06T07:15:26;17.10;99.90
31695;DHT22;18289;51.330;4.946;2022-08-06T07:17:52;17.30;99.90
31695;DHT22;18289;51.330;4.946;2022-08-06T07:20:27;17.30;99.90
31695;DHT22;18289;51.330;4.946;2022-08-06T07:22:55;17.50;99.90
31695;DHT22;18289;51.330;4.946;2022-08-06T07:25:22;17.60;99.90
31695;DHT22;18289;51.330;4.946;2022-08-06T07:27:50;17.60;99.90
31695;DHT22;18289;51.330;4.946;2022-08-06T07:30:18;17.80;99.90
31695;DHT22;18289;51.330;4.946;2022-08-06T07:32:45;17.70;99.90
31695;DHT22;18289;51.330;4.946;2022-08-06T07:35:13;17.90;99.90
31695;DHT22;18289;51.330;4.946;2022-08-06T07:38:05;17.90;99.90
31695;DHT22;18289;51.330;4.946;2022-08-06T07:40:43;18.00;99.90
31695;DHT22;18289;51.330;4.946;2022-08-06T07:43:15;18.10;99.90
31695;DHT22;18289;51.330;4.946;2022-08-06T07:45:42;18.30;99.90
31695;DHT22;18289;51.330;4.946;2022-08-06T07:48:10;18.30;99.90
31695;DHT22;18289;51.330;4.946;2022-08-06T07:50:38;18.30;99.90
31695;DHT22;18289;51.330;4.946;2022-08-06T07:53:05;18.30;99.90
31695;DHT22;18289;51.330;4.946;2022-08-06T07:55:33;18.40;99.90
31695;DHT22;18289;51.330;4.946;2022-08-06T07:58:00;18.30;99.90
31695;DHT22;18289;51.330;4.946;2022-08-06T08:00:27;18.40;99.90
31695;DHT22;18289;51.330;4.946;2022-08-06T08:02:53;18.40;99.90
31695;DHT22;18289;51.330;4.946;2022-08-06T08:05:38;18.60;99.90
31695;DHT22;18289;51.330;4.946;2022-08-06T08:08:37;18.60;99.90
31695;DHT22;18289;51.330;4.946;2022-08-06T08:11:03;18.40;99.90
31695;DHT22;18289;51.330;4.946;2022-08-06T08:13:31;18.50;99.90
31695;DHT22;18289;51.330;4.946;2022-08-06T08:15:58;18.70;99.90
31695;DHT22;18289;51.330;4.946;2022-08-06T08:18:29;18.60;99.90
31695;DHT22;18289;51.330;4.946;2022-08-06T08:20:56;18.60;99.90
31695;DHT22;18289;51.330;4.946;2022-08-06T08:23:23;18.60;99.90
31695;DHT22;18289;51.330;4.946;2022-08-06T08:25:50;18.50;99.90
31695;DHT22;18289;51.330;4.946;2022-08-06T08:28:15;18.60;99.90
31695;DHT22;18289;51.330;4.946;2022-08-06T08:30:42;18.60;99.90
31695;DHT22;18289;51.330;4.946;2022-08-06T08:33:08;18.70;99.90
31695;DHT22;18289;51.330;4.946;2022-08-06T08:35:35;18.80;99.90
31695;DHT22;18289;51.330;4.946;2022-08-06T08:38:00;18.80;99.90
31695;DHT22;18289;51.330;4.946;2022-08-06T08:40:27;18.90;99.90
31695;DHT22;18289;51.330;4.946;2022-08-06T08:42:56;19.00;99.90
31695;DHT22;18289;51.330;4.946;2022-08-06T08:45:24;19.10;99.90
31695;DHT22;18289;51.330;4.946;2022-08-06T08:47:52;19.50;99.90
31695;DHT22;18289;51.330;4.946;2022-08-06T08:50:25;19.50;99.90
31695;DHT22;18289;51.330;4.946;2022-08-06T08:53:03;19.80;99.90
31695;DHT22;18289;51.330;4.946;2022-08-06T08:55:31;20.00;99.90
31695;DHT22;18289;51.330;4.946;2022-08-06T08:57:57;20.20;99.90
31695;DHT22;18289;51.330;4.946;2022-08-06T09:00:24;20.40;99.90
31695;DHT22;18289;51.330;4.946;2022-08-06T09:02:50;20.50;99.90
31695;DHT22;18289;51.330;4.946;2022-08-06T09:05:17;20.50;99.90
31695;DHT22;18289;51.330;4.946;2022-08-06T09:07:42;20.50;99.90
31695;DHT22;18289;51.330;4.946;2022-08-06T09:10:10;20.50;99.90
31695;DHT22;18289;51.330;4.946;2022-08-06T09:12:36;20.70;99.90
31695;DHT22;18289;51.330;4.946;2022-08-06T09:15:03;20.90;99.90
31695;DHT22;18289;51.330;4.946;2022-08-06T09:17:29;21.00;99.90
31695;DHT22;18289;51.330;4.946;2022-08-06T09:19:55;21.10;99.90
31695;DHT22;18289;51.330;4.946;2022-08-06T09:22:21;21.10;99.90
31695;DHT22;18289;51.330;4.946;2022-08-06T09:24:47;21.20;99.90
31695;DHT22;18289;51.330;4.946;2022-08-06T09:27:15;21.30;99.20
31695;DHT22;18289;51.330;4.946;2022-08-06T09:29:56;21.50;98.40
31695;DHT22;18289;51.330;4.946;2022-08-06T09:32:42;21.70;99.60
31695;DHT22;18289;51.330;4.946;2022-08-06T09:35:25;21.70;98.80
31695;DHT22;18289;51.330;4.946;2022-08-06T09:38:00;21.80;99.10
31695;DHT22;18289;51.330;4.946;2022-08-06T09:40:26;21.80;97.60
31695;DHT22;18289;51.330;4.946;2022-08-06T09:42:52;22.00;96.70
31695;DHT22;18289;51.330;4.946;2022-08-06T09:45:22;21.90;96.80
31695;DHT22;18289;51.330;4.946;2022-08-06T09:47:59;21.90;96.90
31695;DHT22;18289;51.330;4.946;2022-08-06T09:50:40;22.20;96.50
31695;DHT22;18289;51.330;4.946;2022-08-06T09:53:06;22.50;97.40
31695;DHT22;18289;51.330;4.946;2022-08-06T09:55:32;22.80;96.00
31695;DHT22;18289;51.330;4.946;2022-08-06T09:57:59;23.40;94.10
31695;DHT22;18289;51.330;4.946;2022-08-06T10:00:27;24.40;93.50
31695;DHT22;18289;51.330;4.946;2022-08-06T10:03:08;25.10;91.90
31695;DHT22;18289;51.330;4.946;2022-08-06T10:05:34;25.90;90.30
31695;DHT22;18289;51.330;4.946;2022-08-06T10:08:07;26.50;84.30
31695;DHT22;18289;51.330;4.946;2022-08-06T10:10:50;27.20;85.60
31695;DHT22;18289;51.330;4.946;2022-08-06T10:13:26;27.60;79.90
31695;DHT22;18289;51.330;4.946;2022-08-06T10:15:54;28.60;74.80
31695;DHT22;18289;51.330;4.946;2022-08-06T10:18:43;29.50;75.10
31695;DHT22;18289;51.330;4.946;2022-08-06T10:21:17;30.40;71.60
31695;DHT22;18289;51.330;4.946;2022-08-06T10:23:48;31.70;66.60
31695;DHT22;18289;51.330;4.946;2022-08-06T10:26:17;31.60;63.10
31695;DHT22;18289;51.330;4.946;2022-08-06T10:28:45;32.20;60.60
31695;DHT22;18289;51.330;4.946;2022-08-06T10:31:14;32.80;58.80
31695;DHT22;18289;51.330;4.946;2022-08-06T10:33:52;32.70;58.00
31695;DHT22;18289;51.330;4.946;2022-08-06T10:37:01;31.90;56.70
31695;DHT22;18289;51.330;4.946;2022-08-06T10:39:30;30.10;58.80
31695;DHT22;18289;51.330;4.946;2022-08-06T10:42:02;28.90;60.70
31695;DHT22;18289;51.330;4.946;2022-08-06T10:44:28;28.20;62.30
31695;DHT22;18289;51.330;4.946;2022-08-06T10:46:55;27.70;63.20
31695;DHT22;18289;51.330;4.946;2022-08-06T10:49:22;27.60;63.30
31695;DHT22;18289;51.330;4.946;2022-08-06T10:51:48;28.00;62.20
31695;DHT22;18289;51.330;4.946;2022-08-06T10:54:16;28.70;59.50
31695;DHT22;18289;51.330;4.946;2022-08-06T10:56:42;28.60;58.80
31695;DHT22;18289;51.330;4.946;2022-08-06T10:59:08;28.60;60.70
31695;DHT22;18289;51.330;4.946;2022-08-06T11:01:53;28.50;58.80
31695;DHT22;18289;51.330;4.946;2022-08-06T11:15:40;29.70;57.50
31695;DHT22;18289;51.330;4.946;2022-08-06T11:18:10;29.10;58.70
31695;DHT22;18289;51.330;4.946;2022-08-06T11:20:41;28.70;59.60
31695;DHT22;18289;51.330;4.946;2022-08-06T11:25:46;27.50;59.50
31695;DHT22;18289;51.330;4.946;2022-08-06T11:28:17;27.30;58.40
31695;DHT22;18289;51.330;4.946;2022-08-06T11:30:54;27.20;59.10
31695;DHT22;18289;51.330;4.946;2022-08-06T11:35:59;25.60;60.00
31695;DHT22;18289;51.330;4.946;2022-08-06T11:41:19;24.40;62.80
31695;DHT22;18289;51.330;4.946;2022-08-06T11:44:03;24.30;62.80
31695;DHT22;18289;51.330;4.946;2022-08-06T11:46:35;24.20;65.20
31695;DHT22;18289;51.330;4.946;2022-08-06T11:51:58;23.80;67.10
31695;DHT22;18289;51.330;4.946;2022-08-06T11:54:31;23.70;67.50
31695;DHT22;18289;51.330;4.946;2022-08-06T12:02:00;22.70;68.40
31695;DHT22;18289;51.330;4.946;2022-08-06T12:07:29;22.80;69.20
31695;DHT22;18289;51.330;4.946;2022-08-06T12:14:55;23.30;70.10
31695;DHT22;18289;51.330;4.946;2022-08-06T12:17:22;23.30;66.50
31695;DHT22;18289;51.330;4.946;2022-08-06T12:19:50;23.30;66.40
31695;DHT22;18289;51.330;4.946;2022-08-06T12:22:19;23.10;68.10
31695;DHT22;18289;51.330;4.946;2022-08-06T12:24:48;23.60;65.90
31695;DHT22;18289;51.330;4.946;2022-08-06T12:27:15;24.00;63.60
31695;DHT22;18289;51.330;4.946;2022-08-06T12:29:42;24.10;67.50
31695;DHT22;18289;51.330;4.946;2022-08-06T12:34:47;24.10;68.70
31695;DHT22;18289;51.330;4.946;2022-08-06T12:37:13;24.20;68.10
31695;DHT22;18289;51.330;4.946;2022-08-06T12:39:39;24.40;65.90
31695;DHT22;18289;51.330;4.946;2022-08-06T12:42:25;24.40;66.50
31695;DHT22;18289;51.330;4.946;2022-08-06T12:44:51;24.50;66.30
31695;DHT22;18289;51.330;4.946;2022-08-06T12:47:16;24.90;65.90
31695;DHT22;18289;51.330;4.946;2022-08-06T12:49:42;25.80;63.80
31695;DHT22;18289;51.330;4.946;2022-08-06T12:52:15;27.00;66.60
31695;DHT22;18289;51.330;4.946;2022-08-06T12:54:46;28.50;59.50
31695;DHT22;18289;51.330;4.946;2022-08-06T12:57:26;30.40;59.80
31695;DHT22;18289;51.330;4.946;2022-08-06T12:59:52;31.70;54.90
31695;DHT22;18289;51.330;4.946;2022-08-06T13:02:20;32.70;53.90
31695;DHT22;18289;51.330;4.946;2022-08-06T13:04:50;33.70;51.50
31695;DHT22;18289;51.330;4.946;2022-08-06T13:07:17;34.30;51.60
31695;DHT22;18289;51.330;4.946;2022-08-06T13:09:44;35.50;49.70
31695;DHT22;18289;51.330;4.946;2022-08-06T13:12:20;35.60;46.80
31695;DHT22;18289;51.330;4.946;2022-08-06T13:14:54;36.50;46.90
31695;DHT22;18289;51.330;4.946;2022-08-06T13:17:25;37.30;46.90
31695;DHT22;18289;51.330;4.946;2022-08-06T13:19:57;38.30;46.50
31695;DHT22;18289;51.330;4.946;2022-08-06T13:22:27;38.70;46.00
31695;DHT22;18289;51.330;4.946;2022-08-06T13:25:13;38.40;44.50
31695;DHT22;18289;51.330;4.946;2022-08-06T13:27:39;38.70;42.10
31695;DHT22;18289;51.330;4.946;2022-08-06T13:30:07;37.90;41.70
31695;DHT22;18289;51.330;4.946;2022-08-06T13:32:33;36.70;41.50
31695;DHT22;18289;51.330;4.946;2022-08-06T13:35:01;35.10;44.10
31695;DHT22;18289;51.330;4.946;2022-08-06T13:37:47;33.00;44.90
31695;DHT22;18289;51.330;4.946;2022-08-06T13:40:19;31.50;47.50
31695;DHT22;18289;51.330;4.946;2022-08-06T13:43:00;29.90;50.00
31695;DHT22;18289;51.330;4.946;2022-08-06T13:45:28;28.70;52.10
31695;DHT22;18289;51.330;4.946;2022-08-06T13:48:08;29.00;54.90
31695;DHT22;18289;51.330;4.946;2022-08-06T13:50:37;31.30;51.60
31695;DHT22;18289;51.330;4.946;2022-08-06T13:53:03;33.70;48.60
31695;DHT22;18289;51.330;4.946;2022-08-06T13:55:29;35.50;46.90
31695;DHT22;18289;51.330;4.946;2022-08-06T13:57:56;37.10;44.80
31695;DHT22;18289;51.330;4.946;2022-08-06T14:00:23;37.20;43.00
31695;DHT22;18289;51.330;4.946;2022-08-06T14:02:49;36.00;43.50
31695;DHT22;18289;51.330;4.946;2022-08-06T14:05:15;33.40;45.00
31695;DHT22;18289;51.330;4.946;2022-08-06T14:07:40;31.90;47.70
31695;DHT22;18289;51.330;4.946;2022-08-06T14:10:07;30.50;49.50
31695;DHT22;18289;51.330;4.946;2022-08-06T14:12:33;29.60;50.90
31695;DHT22;18289;51.330;4.946;2022-08-06T14:14:58;28.90;51.90
31695;DHT22;18289;51.330;4.946;2022-08-06T14:17:24;28.40;52.50
31695;DHT22;18289;51.330;4.946;2022-08-06T14:19:50;28.20;53.70
31695;DHT22;18289;51.330;4.946;2022-08-06T14:22:16;29.30;52.90
31695;DHT22;18289;51.330;4.946;2022-08-06T14:24:42;29.50;51.50
31695;DHT22;18289;51.330;4.946;2022-08-06T14:27:09;29.10;52.90
31695;DHT22;18289;51.330;4.946;2022-08-06T14:29:35;28.60;53.20
31695;DHT22;18289;51.330;4.946;2022-08-06T14:32:05;28.00;53.20
31695;DHT22;18289;51.330;4.946;2022-08-06T14:34:31;27.30;53.70
31695;DHT22;18289;51.330;4.946;2022-08-06T14:36:57;26.80;54.00
31695;DHT22;18289;51.330;4.946;2022-08-06T14:39:23;26.30;55.90
31695;DHT22;18289;51.330;4.946;2022-08-06T14:41:49;26.00;56.70
31695;DHT22;18289;51.330;4.946;2022-08-06T14:44:33;25.60;58.00
31695;DHT22;18289;51.330;4.946;2022-08-06T14:47:17;25.30;57.10
31695;DHT22;18289;51.330;4.946;2022-08-06T14:49:43;25.60;59.30
31695;DHT22;18289;51.330;4.946;2022-08-06T14:52:10;26.90;58.80
31695;DHT22;18289;51.330;4.946;2022-08-06T14:54:36;29.40;55.60
31695;DHT22;18289;51.330;4.946;2022-08-06T14:57:04;31.40;52.80
31695;DHT22;18289;51.330;4.946;2022-08-06T14:59:30;31.40;50.50
31695;DHT22;18289;51.330;4.946;2022-08-06T15:01:55;32.00;51.40
31695;DHT22;18289;51.330;4.946;2022-08-06T15:04:22;33.60;48.50
31695;DHT22;18289;51.330;4.946;2022-08-06T15:06:48;35.10;47.40
31695;DHT22;18289;51.330;4.946;2022-08-06T15:09:14;36.00;44.80
31695;DHT22;18289;51.330;4.946;2022-08-06T15:11:40;36.10;43.40
31695;DHT22;18289;51.330;4.946;2022-08-06T15:14:06;36.30;45.10
31695;DHT22;18289;51.330;4.946;2022-08-06T15:16:32;36.90;44.50
31695;DHT22;18289;51.330;4.946;2022-08-06T15:18:58;37.60;43.30
31695;DHT22;18289;51.330;4.946;2022-08-06T15:21:25;36.20;43.20
31695;DHT22;18289;51.330;4.946;2022-08-06T15:23:51;34.90;46.60
31695;DHT22;18289;51.330;4.946;2022-08-06T15:26:19;35.20;45.30
31695;DHT22;18289;51.330;4.946;2022-08-06T15:28:45;36.00;43.70
31695;DHT22;18289;51.330;4.946;2022-08-06T15:31:10;36.60;43.70
31695;DHT22;18289;51.330;4.946;2022-08-06T15:33:36;37.60;43.80
31695;DHT22;18289;51.330;4.946;2022-08-06T15:36:02;37.50;42.50
31695;DHT22;18289;51.330;4.946;2022-08-06T15:38:29;35.40;44.00
31695;DHT22;18289;51.330;4.946;2022-08-06T15:40:55;32.80;46.30
31695;DHT22;18289;51.330;4.946;2022-08-06T15:43:22;30.40;49.30
31695;DHT22;18289;51.330;4.946;2022-08-06T15:45:50;30.20;51.60
31695;DHT22;18289;51.330;4.946;2022-08-06T15:48:16;31.70;49.60
31695;DHT22;18289;51.330;4.946;2022-08-06T15:50:44;33.00;48.30
31695;DHT22;18289;51.330;4.946;2022-08-06T15:53:12;33.50;45.80
31695;DHT22;18289;51.330;4.946;2022-08-06T15:55:38;35.00;45.30
31695;DHT22;18289;51.330;4.946;2022-08-06T15:58:03;35.60;44.20
31695;DHT22;18289;51.330;4.946;2022-08-06T16:00:29;35.20;44.10
31695;DHT22;18289;51.330;4.946;2022-08-06T16:02:56;35.80;43.60
31695;DHT22;18289;51.330;4.946;2022-08-06T16:05:22;35.20;44.10
31695;DHT22;18289;51.330;4.946;2022-08-06T16:07:47;34.90;45.20
31695;DHT22;18289;51.330;4.946;2022-08-06T16:10:13;34.60;45.30
31695;DHT22;18289;51.330;4.946;2022-08-06T16:12:40;33.70;45.30
31695;DHT22;18289;51.330;4.946;2022-08-06T16:15:06;32.20;47.00
31695;DHT22;18289;51.330;4.946;2022-08-06T16:17:32;30.90;48.50
31695;DHT22;18289;51.330;4.946;2022-08-06T16:19:58;29.60;51.00
31695;DHT22;18289;51.330;4.946;2022-08-06T16:22:24;28.90;51.90
31695;DHT22;18289;51.330;4.946;2022-08-06T16:24:49;28.20;52.80
31695;DHT22;18289;51.330;4.946;2022-08-06T16:27:15;27.50;53.90
31695;DHT22;18289;51.330;4.946;2022-08-06T16:29:43;27.10;53.40
31695;DHT22;18289;51.330;4.946;2022-08-06T16:32:09;26.50;54.50
31695;DHT22;18289;51.330;4.946;2022-08-06T16:34:35;26.20;54.90
31695;DHT22;18289;51.330;4.946;2022-08-06T16:37:01;26.00;56.80
31695;DHT22;18289;51.330;4.946;2022-08-06T16:39:28;25.90;55.50
31695;DHT22;18289;51.330;4.946;2022-08-06T16:41:54;25.70;56.60
31695;DHT22;18289;51.330;4.946;2022-08-06T16:44:19;25.50;56.50